Cook, MN

12:40 AM CST on January 29, 2015 (GMT -0600)
Cook Municipal | Change Station
CLOSE
Current Station
Airport
Location: Cook,
Elevation: 1325 ft
Nearby Weather Stations
Active Advisory: Freezing Rain Advisory

Elev 1325 ft 47.82 °N, 92.69 °W | Updated 5 minutes ago

Overcast
Overcast
28 °F
Feels Like 21 °F
N
7
Wind Variable Wind from NW
Gusts 17 mph

Today
High -- | Low -- °F
--% Chance of Precip.
Yesterday
High -- | Low -- °F
Precip. -- in
7:41 AM 5:06 PM
Waxing Gibbous, 71% visible
Pressure 29.84 in
Visibility 5.0 miles
Clouds Overcast 500 ft
Windchill 21 °F
Dew Point 28 °F
Humidity 100%
Rainfall 0.00 in
Snow Depth Not available.
UV 0 out of 12
Pollen .10 out of 12
Air Quality Not available.
Flu Activity Not available.
METAR KCQM 290635Z AUTO 32006G15KT 5SM BR OVC005 M02/M02 A2984 RMK AO2

More Conditions Fewer Conditions

Pressure 29.84 in
Visibility 5.0 miles
Clouds Overcast 500 ft
Windchill 21 °F
Dew Point 28 °F
Humidity 100%
Rainfall 0.00 in
Snow Depth Not available.
UV 0 out of 12
Pollen .10 out of 12
Air Quality Not available.
Flu Activity Not available.
METAR KCQM 290635Z AUTO 32006G15KT 5SM BR OVC005 M02/M02 A2984 RMK AO2

More Conditions Fewer Conditions

10-Day Weather Forecast

Almanac

Astronomy

Jan. 29, 2015 Rise Set
Actual Time
Civil Twilight
Nautical Twilight
Astronomical Twilight
Moon
Length of Visible Light
Length of Day
Tomorrow will be .
, % of the Moon is Illuminated

Today's Extremes

State Highs State Lows

Community

WunderPhotos

Upload Photos

1,791,387 photos uploaded!

WunderBlogs® & News

Nearby

Air Quality

  Air Quality AQ Index Pollutant
Not available.

Snow Depth

Station Depth Elevation

Earthquake Activity

City Distance Mag. Time & Date
Minimum magnitude displayed is 2.5.

Coastal Water Temperatures

Place Temperature

Nearby Weather Stations